ANZ689 NZWN-NZDN
Flight info
| Callsign | ANZ689 |
|---|---|
| Flight time | 1h 4m |
| Altitude | 38000 |
| Route | SABDA Y622 MESIX Y676 IDARA Y814 MIPAK |
| Aircraft | A21N/M-SDE2E3FGHIRWXY/LB1 |
Departure
| Time | 2026-04-28 05:18 |
|---|---|
| Airport | Wellington International Airport (NZWN) |
Arrival
| Time | 2026-04-28 06:23 |
|---|---|
| Airport | Dunedin International Airport (NZDN) |
| Time | Latitude | Longitude | Altitude | Speed | Heading |
|---|---|---|---|---|---|
| 2026-04-28 04:54 | -41.32976 | 174.80971 | 32 ft | 0 kts | 158° |
| 2026-04-28 05:11 | -41.32955 | 174.80963 | 32 ft | 4 kts | 166° |
| 2026-04-28 05:11 | -41.32929 | 174.80955 | 32 ft | 4 kts | 177° |
| 2026-04-28 05:12 | -41.32906 | 174.80958 | 32 ft | 0 kts | 199° |
| 2026-04-28 05:14 | -41.32916 | 174.80953 | 32 ft | 4 kts | 204° |
| 2026-04-28 05:14 | -41.32920 | 174.80929 | 32 ft | 1 kts | 266° |
| 2026-04-28 05:14 | -41.32927 | 174.80901 | 32 ft | 5 kts | 223° |
| 2026-04-28 05:15 | -41.32961 | 174.80870 | 32 ft | 7 kts | 236° |
| 2026-04-28 05:15 | -41.32985 | 174.80805 | 32 ft | 9 kts | 211° |
| 2026-04-28 05:15 | -41.33056 | 174.80795 | 32 ft | 12 kts | 185° |
| 2026-04-28 05:15 | -41.33121 | 174.80789 | 32 ft | 5 kts | 184° |
| 2026-04-28 05:16 | -41.33169 | 174.80785 | 32 ft | 9 kts | 184° |
| 2026-04-28 05:16 | -41.33242 | 174.80778 | 32 ft | 12 kts | 184° |
| 2026-04-28 05:16 | -41.33334 | 174.80773 | 32 ft | 15 kts | 182° |
| 2026-04-28 05:17 | -41.33471 | 174.80766 | 32 ft | 3 kts | 186° |
| 2026-04-28 05:17 | -41.33499 | 174.80745 | 32 ft | 6 kts | 224° |
| 2026-04-28 05:17 | -41.33530 | 174.80687 | 32 ft | 6 kts | 250° |
| 2026-04-28 05:17 | -41.33516 | 174.80636 | 32 ft | 6 kts | 338° |
| 2026-04-28 05:18 | -41.33462 | 174.80636 | 32 ft | 10 kts | 2° |
| 2026-04-28 05:18 | -41.33181 | 174.80659 | 32 ft | 92 kts | 3° |
| 2026-04-28 05:18 | -41.32247 | 174.80724 | 367 ft | 153 kts | 2° |
| 2026-04-28 05:18 | -41.31162 | 174.80787 | 1464 ft | 162 kts | 1° |
| 2026-04-28 05:19 | -41.29954 | 174.80852 | 2254 ft | 190 kts | 360° |
| 2026-04-28 05:19 | -41.28564 | 174.80951 | 3219 ft | 207 kts | 359° |
| 2026-04-28 05:19 | -41.27117 | 174.81057 | 4529 ft | 210 kts | 356° |
| 2026-04-28 05:19 | -41.25679 | 174.80785 | 5803 ft | 210 kts | 339° |
| 2026-04-28 05:20 | -41.24264 | 174.80210 | 7049 ft | 215 kts | 338° |
| 2026-04-28 05:20 | -41.22873 | 174.79312 | 7799 ft | 239 kts | 319° |
| 2026-04-28 05:20 | -41.21839 | 174.77474 | 8525 ft | 261 kts | 291° |
| 2026-04-28 05:20 | -41.21616 | 174.75064 | 9603 ft | 272 kts | 262° |
| 2026-04-28 05:21 | -41.22341 | 174.72695 | 10534 ft | 292 kts | 236° |
| 2026-04-28 05:21 | -41.23929 | 174.70810 | 11006 ft | 326 kts | 213° |
| 2026-04-28 05:21 | -41.26028 | 174.69399 | 11602 ft | 349 kts | 208° |
| 2026-04-28 05:21 | -41.28235 | 174.67934 | 12485 ft | 359 kts | 210° |
| 2026-04-28 05:22 | -41.30467 | 174.66368 | 13580 ft | 364 kts | 211° |
| 2026-04-28 05:22 | -41.32702 | 174.64734 | 14632 ft | 369 kts | 211° |
| 2026-04-28 05:22 | -41.34954 | 174.63050 | 15617 ft | 374 kts | 212° |
| 2026-04-28 05:22 | -41.37232 | 174.61329 | 16615 ft | 378 kts | 212° |
| 2026-04-28 05:23 | -41.39495 | 174.59614 | 17630 ft | 382 kts | 212° |
| 2026-04-28 05:23 | -41.41816 | 174.57850 | 18609 ft | 387 kts | 212° |
| 2026-04-28 05:23 | -41.44166 | 174.56064 | 19450 ft | 392 kts | 212° |
| 2026-04-28 05:23 | -41.46543 | 174.54258 | 20307 ft | 396 kts | 212° |
| 2026-04-28 05:24 | -41.48943 | 174.52430 | 21158 ft | 399 kts | 212° |
| 2026-04-28 05:24 | -41.51373 | 174.50575 | 21935 ft | 405 kts | 212° |
| 2026-04-28 05:24 | -41.53834 | 174.48698 | 22717 ft | 409 kts | 212° |
| 2026-04-28 05:24 | -41.56318 | 174.46798 | 23502 ft | 414 kts | 212° |
| 2026-04-28 05:25 | -41.58791 | 174.44903 | 24207 ft | 418 kts | 212° |
| 2026-04-28 05:25 | -41.61322 | 174.42960 | 24856 ft | 422 kts | 212° |
| 2026-04-28 05:25 | -41.63876 | 174.40996 | 25486 ft | 426 kts | 212° |
| 2026-04-28 05:25 | -41.66456 | 174.39012 | 26101 ft | 430 kts | 211° |
| 2026-04-28 05:26 | -41.69065 | 174.37005 | 26710 ft | 434 kts | 211° |
| 2026-04-28 05:26 | -41.71697 | 174.34980 | 27309 ft | 439 kts | 211° |
| 2026-04-28 05:26 | -41.74352 | 174.32935 | 27884 ft | 442 kts | 211° |
| 2026-04-28 05:26 | -41.77018 | 174.30880 | 28629 ft | 441 kts | 211° |
| 2026-04-28 05:27 | -41.79673 | 174.28828 | 29438 ft | 439 kts | 211° |
| 2026-04-28 05:27 | -41.82316 | 174.26784 | 30178 ft | 438 kts | 211° |
| 2026-04-28 05:27 | -41.84918 | 174.24773 | 30822 ft | 436 kts | 210° |
| 2026-04-28 05:27 | -41.87542 | 174.22745 | 31457 ft | 435 kts | 210° |
| 2026-04-28 05:28 | -41.90160 | 174.20723 | 32086 ft | 433 kts | 210° |
| 2026-04-28 05:28 | -41.92764 | 174.18709 | 32691 ft | 431 kts | 210° |
| 2026-04-28 05:28 | -41.95356 | 174.16697 | 33289 ft | 430 kts | 210° |
| 2026-04-28 05:28 | -41.97942 | 174.14689 | 33890 ft | 428 kts | 210° |
| 2026-04-28 05:29 | -42.00518 | 174.12687 | 34422 ft | 427 kts | 210° |
| 2026-04-28 05:29 | -42.03092 | 174.10687 | 34891 ft | 426 kts | 210° |
| 2026-04-28 05:29 | -42.05652 | 174.08693 | 35366 ft | 426 kts | 210° |
| 2026-04-28 05:29 | -42.08213 | 174.06697 | 35838 ft | 425 kts | 210° |
| 2026-04-28 05:30 | -42.10734 | 174.04730 | 36296 ft | 424 kts | 210° |
| 2026-04-28 05:30 | -42.13275 | 174.02742 | 36746 ft | 423 kts | 210° |
| 2026-04-28 05:30 | -42.15813 | 174.00753 | 37190 ft | 422 kts | 210° |
| 2026-04-28 05:30 | -42.18348 | 173.98768 | 37608 ft | 421 kts | 210° |
| 2026-04-28 05:31 | -42.20882 | 173.96780 | 38008 ft | 421 kts | 210° |
| 2026-04-28 05:31 | -42.23418 | 173.94795 | 38271 ft | 421 kts | 210° |
| 2026-04-28 05:31 | -42.28477 | 173.90831 | 38298 ft | 419 kts | 210° |
| 2026-04-28 05:32 | -42.33478 | 173.86902 | 38287 ft | 419 kts | 210° |
| 2026-04-28 05:32 | -42.38520 | 173.82936 | 38276 ft | 419 kts | 210° |
| 2026-04-28 05:33 | -42.43555 | 173.78962 | 38275 ft | 419 kts | 210° |
| 2026-04-28 05:33 | -42.48584 | 173.74985 | 38275 ft | 418 kts | 210° |
| 2026-04-28 05:34 | -42.53607 | 173.71003 | 38276 ft | 418 kts | 210° |
| 2026-04-28 05:34 | -42.58594 | 173.67047 | 38271 ft | 418 kts | 210° |
| 2026-04-28 05:35 | -42.63619 | 173.63060 | 38279 ft | 418 kts | 210° |
| 2026-04-28 05:35 | -42.68629 | 173.59069 | 38270 ft | 418 kts | 210° |
| 2026-04-28 05:36 | -42.73639 | 173.55066 | 38273 ft | 418 kts | 210° |
| 2026-04-28 05:36 | -42.77812 | 173.51737 | 38273 ft | 418 kts | 210° |
| 2026-04-28 05:37 | -42.82831 | 173.47718 | 38269 ft | 419 kts | 210° |
| 2026-04-28 05:37 | -42.88657 | 173.43046 | 38269 ft | 418 kts | 210° |
| 2026-04-28 05:38 | -42.93665 | 173.39014 | 38272 ft | 418 kts | 210° |
| 2026-04-28 05:38 | -42.97827 | 173.35656 | 38269 ft | 418 kts | 210° |
| 2026-04-28 05:39 | -43.03643 | 173.30968 | 38282 ft | 418 kts | 210° |
| 2026-04-28 05:39 | -43.08639 | 173.26928 | 38266 ft | 417 kts | 210° |
| 2026-04-28 05:40 | -43.13251 | 173.22125 | 38270 ft | 418 kts | 221° |
| 2026-04-28 05:40 | -43.16755 | 173.17554 | 38267 ft | 419 kts | 222° |
| 2026-04-28 05:41 | -43.20968 | 173.12048 | 38259 ft | 419 kts | 222° |
| 2026-04-28 05:41 | -43.25195 | 173.06536 | 38266 ft | 419 kts | 222° |
| 2026-04-28 05:42 | -43.29416 | 173.01018 | 38263 ft | 419 kts | 222° |
| 2026-04-28 05:42 | -43.34320 | 172.94596 | 38260 ft | 419 kts | 222° |
| 2026-04-28 05:43 | -43.37822 | 172.90004 | 38254 ft | 419 kts | 222° |
| 2026-04-28 05:43 | -43.42041 | 172.84463 | 38244 ft | 419 kts | 222° |
| 2026-04-28 05:44 | -43.46252 | 172.78917 | 38235 ft | 419 kts | 222° |
| 2026-04-28 05:44 | -43.50466 | 172.73354 | 38225 ft | 419 kts | 222° |
| 2026-04-28 05:45 | -43.54647 | 172.67831 | 38232 ft | 419 kts | 222° |
| 2026-04-28 05:45 | -43.58849 | 172.62261 | 38238 ft | 419 kts | 222° |
| 2026-04-28 05:46 | -43.63055 | 172.56674 | 38255 ft | 420 kts | 222° |
| 2026-04-28 05:46 | -43.67257 | 172.51092 | 38259 ft | 419 kts | 222° |
| 2026-04-28 05:47 | -43.71437 | 172.45533 | 38271 ft | 420 kts | 222° |
| 2026-04-28 05:47 | -43.75634 | 172.39930 | 38253 ft | 420 kts | 222° |
| 2026-04-28 05:48 | -43.79835 | 172.34307 | 38256 ft | 420 kts | 223° |
| 2026-04-28 05:48 | -43.84039 | 172.28670 | 38256 ft | 420 kts | 223° |
| 2026-04-28 05:49 | -43.88210 | 172.23070 | 38257 ft | 420 kts | 223° |
| 2026-04-28 05:49 | -43.92403 | 172.17422 | 38257 ft | 420 kts | 223° |
| 2026-04-28 05:50 | -43.96593 | 172.11764 | 38262 ft | 420 kts | 223° |
| 2026-04-28 05:50 | -44.00779 | 172.06107 | 38255 ft | 420 kts | 223° |
| 2026-04-28 05:51 | -44.04985 | 172.00473 | 38250 ft | 420 kts | 220° |
| 2026-04-28 05:51 | -44.09726 | 171.95882 | 38255 ft | 419 kts | 212° |
| 2026-04-28 05:52 | -44.14574 | 171.91582 | 38270 ft | 418 kts | 212° |
| 2026-04-28 05:52 | -44.19471 | 171.87204 | 38260 ft | 418 kts | 212° |
| 2026-04-28 05:53 | -44.24359 | 171.82802 | 38259 ft | 418 kts | 212° |
| 2026-04-28 05:53 | -44.29247 | 171.78409 | 38258 ft | 418 kts | 212° |
| 2026-04-28 05:54 | -44.34131 | 171.74008 | 38258 ft | 417 kts | 212° |
| 2026-04-28 05:54 | -44.38979 | 171.69637 | 38256 ft | 417 kts | 212° |
| 2026-04-28 05:55 | -44.43853 | 171.65231 | 38252 ft | 417 kts | 212° |
| 2026-04-28 05:55 | -44.48730 | 171.60811 | 38262 ft | 417 kts | 213° |
| 2026-04-28 05:56 | -44.53601 | 171.56380 | 38267 ft | 417 kts | 213° |
| 2026-04-28 05:56 | -44.58444 | 171.51977 | 38262 ft | 418 kts | 213° |
| 2026-04-28 05:57 | -44.63306 | 171.47557 | 38149 ft | 411 kts | 213° |
| 2026-04-28 05:57 | -44.65707 | 171.45362 | 37831 ft | 414 kts | 213° |
| 2026-04-28 05:57 | -44.68126 | 171.43151 | 37558 ft | 415 kts | 213° |
| 2026-04-28 05:58 | -44.70542 | 171.40938 | 37299 ft | 415 kts | 213° |
| 2026-04-28 05:58 | -44.72962 | 171.38721 | 37034 ft | 415 kts | 213° |
| 2026-04-28 05:58 | -44.75350 | 171.36528 | 36781 ft | 415 kts | 213° |
| 2026-04-28 05:58 | -44.77771 | 171.34305 | 36518 ft | 416 kts | 213° |
| 2026-04-28 05:59 | -44.80191 | 171.32080 | 36270 ft | 416 kts | 213° |
| 2026-04-28 05:59 | -44.82618 | 171.29849 | 36013 ft | 416 kts | 213° |
| 2026-04-28 05:59 | -44.85039 | 171.27619 | 35763 ft | 417 kts | 213° |
| 2026-04-28 05:59 | -44.87466 | 171.25381 | 35522 ft | 416 kts | 213° |
| 2026-04-28 06:00 | -44.89873 | 171.23157 | 35053 ft | 412 kts | 213° |
| 2026-04-28 06:00 | -44.92261 | 171.20952 | 34394 ft | 409 kts | 213° |
| 2026-04-28 06:00 | -44.94632 | 171.18766 | 33601 ft | 405 kts | 213° |
| 2026-04-28 06:00 | -44.96973 | 171.16602 | 32850 ft | 401 kts | 213° |
| 2026-04-28 06:01 | -44.99303 | 171.14446 | 32124 ft | 399 kts | 213° |
| 2026-04-28 06:01 | -45.01621 | 171.12296 | 31406 ft | 400 kts | 214° |
| 2026-04-28 06:01 | -45.03924 | 171.10161 | 30715 ft | 403 kts | 214° |
| 2026-04-28 06:01 | -45.06269 | 171.07983 | 29933 ft | 405 kts | 214° |
| 2026-04-28 06:02 | -45.08635 | 171.05786 | 29110 ft | 407 kts | 214° |
| 2026-04-28 06:02 | -45.10997 | 171.03593 | 28368 ft | 404 kts | 214° |
| 2026-04-28 06:02 | -45.13329 | 171.01419 | 27688 ft | 400 kts | 214° |
| 2026-04-28 06:02 | -45.15644 | 170.99258 | 27015 ft | 397 kts | 214° |
| 2026-04-28 06:03 | -45.17939 | 170.97116 | 26375 ft | 393 kts | 214° |
| 2026-04-28 06:03 | -45.20214 | 170.94991 | 25754 ft | 390 kts | 214° |
| 2026-04-28 06:03 | -45.22468 | 170.92884 | 25134 ft | 386 kts | 214° |
| 2026-04-28 06:03 | -45.24696 | 170.90799 | 24526 ft | 384 kts | 214° |
| 2026-04-28 06:04 | -45.26897 | 170.88737 | 23945 ft | 381 kts | 215° |
| 2026-04-28 06:04 | -45.29132 | 170.86744 | 23271 ft | 377 kts | 212° |
| 2026-04-28 06:04 | -45.31388 | 170.84878 | 22620 ft | 373 kts | 212° |
| 2026-04-28 06:04 | -45.33625 | 170.83038 | 21959 ft | 371 kts | 212° |
| 2026-04-28 06:05 | -45.35842 | 170.81213 | 21329 ft | 367 kts | 212° |
| 2026-04-28 06:05 | -45.38042 | 170.79398 | 20715 ft | 364 kts | 212° |
| 2026-04-28 06:05 | -45.40225 | 170.77598 | 20140 ft | 361 kts | 212° |
| 2026-04-28 06:05 | -45.42384 | 170.75813 | 19582 ft | 357 kts | 212° |
| 2026-04-28 06:06 | -45.44520 | 170.74039 | 19045 ft | 354 kts | 213° |
| 2026-04-28 06:06 | -45.46644 | 170.72278 | 18510 ft | 353 kts | 212° |
| 2026-04-28 06:06 | -45.48733 | 170.70548 | 17944 ft | 351 kts | 213° |
| 2026-04-28 06:06 | -45.50836 | 170.68805 | 17383 ft | 350 kts | 212° |
| 2026-04-28 06:07 | -45.52938 | 170.67063 | 16831 ft | 349 kts | 213° |
| 2026-04-28 06:07 | -45.55034 | 170.65320 | 16302 ft | 348 kts | 213° |
| 2026-04-28 06:07 | -45.57115 | 170.63588 | 15801 ft | 346 kts | 213° |
| 2026-04-28 06:07 | -45.59163 | 170.61884 | 15318 ft | 345 kts | 213° |
| 2026-04-28 06:08 | -45.61222 | 170.60170 | 14672 ft | 342 kts | 213° |
| 2026-04-28 06:08 | -45.63260 | 170.58470 | 14040 ft | 337 kts | 213° |
| 2026-04-28 06:08 | -45.65290 | 170.56775 | 13448 ft | 339 kts | 213° |
| 2026-04-28 06:08 | -45.67326 | 170.55075 | 12911 ft | 338 kts | 213° |
| 2026-04-28 06:09 | -45.69194 | 170.53157 | 12412 ft | 334 kts | 225° |
| 2026-04-28 06:09 | -45.70619 | 170.50580 | 11906 ft | 329 kts | 238° |
| 2026-04-28 06:09 | -45.71852 | 170.47827 | 11421 ft | 327 kts | 239° |
| 2026-04-28 06:09 | -45.73044 | 170.45143 | 11081 ft | 311 kts | 239° |
| 2026-04-28 06:10 | -45.74179 | 170.42608 | 10863 ft | 294 kts | 239° |
| 2026-04-28 06:10 | -45.75255 | 170.40215 | 10688 ft | 278 kts | 239° |
| 2026-04-28 06:10 | -45.76306 | 170.37963 | 10459 ft | 267 kts | 238° |
| 2026-04-28 06:10 | -45.77324 | 170.35821 | 10206 ft | 260 kts | 238° |
| 2026-04-28 06:11 | -45.78330 | 170.33701 | 9850 ft | 256 kts | 238° |
| 2026-04-28 06:11 | -45.79327 | 170.31592 | 9497 ft | 256 kts | 238° |
| 2026-04-28 06:11 | -45.80327 | 170.29475 | 9125 ft | 256 kts | 238° |
| 2026-04-28 06:11 | -45.81322 | 170.27369 | 8774 ft | 255 kts | 239° |
| 2026-04-28 06:12 | -45.82316 | 170.25262 | 8436 ft | 254 kts | 239° |
| 2026-04-28 06:12 | -45.83305 | 170.23164 | 8098 ft | 254 kts | 239° |
| 2026-04-28 06:12 | -45.84291 | 170.21068 | 7770 ft | 253 kts | 239° |
| 2026-04-28 06:12 | -45.85272 | 170.18981 | 7443 ft | 251 kts | 239° |
| 2026-04-28 06:13 | -45.85924 | 170.17595 | 7217 ft | 251 kts | 240° |
| 2026-04-28 06:13 | -45.86895 | 170.15526 | 6876 ft | 249 kts | 240° |
| 2026-04-28 06:13 | -45.87856 | 170.13477 | 6497 ft | 246 kts | 240° |
| 2026-04-28 06:13 | -45.88803 | 170.11459 | 6156 ft | 242 kts | 240° |
| 2026-04-28 06:14 | -45.89738 | 170.09470 | 5831 ft | 240 kts | 240° |
| 2026-04-28 06:14 | -45.90660 | 170.07504 | 5519 ft | 232 kts | 240° |
| 2026-04-28 06:14 | -45.91539 | 170.05627 | 5273 ft | 221 kts | 240° |
| 2026-04-28 06:14 | -45.92380 | 170.03824 | 4990 ft | 214 kts | 241° |
| 2026-04-28 06:15 | -45.93166 | 170.02097 | 4756 ft | 205 kts | 241° |
| 2026-04-28 06:15 | -45.93928 | 170.00426 | 4600 ft | 194 kts | 242° |
| 2026-04-28 06:15 | -45.94656 | 169.98843 | 4423 ft | 186 kts | 242° |
| 2026-04-28 06:15 | -45.95364 | 169.97307 | 4125 ft | 184 kts | 241° |
| 2026-04-28 06:16 | -45.96062 | 169.95811 | 3870 ft | 178 kts | 240° |
| 2026-04-28 06:16 | -45.96515 | 169.94840 | 3644 ft | 177 kts | 239° |
| 2026-04-28 06:16 | -45.97444 | 169.92859 | 3123 ft | 181 kts | 238° |
| 2026-04-28 06:16 | -45.98157 | 169.91340 | 2856 ft | 185 kts | 236° |
| 2026-04-28 06:17 | -45.99170 | 169.90230 | 2797 ft | 189 kts | 195° |
| 2026-04-28 06:17 | -46.00457 | 169.90413 | 2809 ft | 191 kts | 151° |
| 2026-04-28 06:17 | -46.01492 | 169.91618 | 2833 ft | 192 kts | 139° |
| 2026-04-28 06:18 | -46.03565 | 169.94012 | 2820 ft | 192 kts | 136° |
| 2026-04-28 06:18 | -46.04157 | 169.95678 | 2817 ft | 190 kts | 92° |
| 2026-04-28 06:18 | -46.03815 | 169.97463 | 2825 ft | 188 kts | 55° |
| 2026-04-28 06:18 | -46.03001 | 169.98929 | 2837 ft | 188 kts | 47° |
| 2026-04-28 06:19 | -46.02150 | 170.00350 | 2834 ft | 187 kts | 49° |
| 2026-04-28 06:19 | -46.01355 | 170.01827 | 2776 ft | 184 kts | 52° |
| 2026-04-28 06:19 | -46.00638 | 170.03298 | 2565 ft | 177 kts | 54° |
| 2026-04-28 06:19 | -45.99969 | 170.04717 | 2381 ft | 166 kts | 55° |
| 2026-04-28 06:20 | -45.99355 | 170.06027 | 2194 ft | 157 kts | 55° |
| 2026-04-28 06:20 | -45.98740 | 170.07338 | 1983 ft | 158 kts | 56° |
| 2026-04-28 06:20 | -45.98170 | 170.08557 | 1757 ft | 139 kts | 56° |
| 2026-04-28 06:20 | -45.97636 | 170.09697 | 1544 ft | 137 kts | 56° |
| 2026-04-28 06:21 | -45.97108 | 170.10824 | 1348 ft | 136 kts | 56° |
| 2026-04-28 06:21 | -45.96583 | 170.11944 | 1160 ft | 135 kts | 56° |
| 2026-04-28 06:21 | -45.96062 | 170.13057 | 975 ft | 134 kts | 56° |
| 2026-04-28 06:21 | -45.95541 | 170.14165 | 795 ft | 134 kts | 57° |
| 2026-04-28 06:22 | -45.95019 | 170.15285 | 620 ft | 136 kts | 57° |
| 2026-04-28 06:22 | -45.94492 | 170.16399 | 426 ft | 137 kts | 58° |
| 2026-04-28 06:22 | -45.93962 | 170.17539 | 257 ft | 137 kts | 58° |
| 2026-04-28 06:22 | -45.93425 | 170.18672 | 82 ft | 137 kts | 58° |
| 2026-04-28 06:23 | -45.92900 | 170.19777 | 18 ft | 123 kts | 56° |
| 2026-04-28 06:23 | -45.92619 | 170.20374 | 15 ft | 4 kts | 56° |
| 2026-04-28 06:23 | -45.92603 | 170.20413 | 15 ft | 7 kts | 60° |
| 2026-04-28 06:23 | -45.92583 | 170.20463 | 15 ft | 5 kts | 62° |
| 2026-04-28 06:24 | -45.92567 | 170.20454 | 18 ft | 7 kts | 239° |
| 2026-04-28 06:24 | -45.92627 | 170.20337 | 15 ft | 18 kts | 234° |
| 2026-04-28 06:24 | -45.92685 | 170.20220 | 17 ft | 6 kts | 233° |
| 2026-04-28 06:24 | -45.92694 | 170.20198 | 17 ft | 5 kts | 256° |
| 2026-04-28 06:25 | -45.92652 | 170.20133 | 17 ft | 11 kts | 324° |
| 2026-04-28 06:25 | -45.92577 | 170.20062 | 18 ft | 15 kts | 327° |
| 2026-04-28 06:25 | -45.92479 | 170.19985 | 16 ft | 15 kts | 333° |